Pagrindinis puslapis
METAR-TAF:

METAR-TAF

Oro uostai :

Cape Newenham, Aliaska, Jungtinės Amerikos Valstijos

platuma: 58-39N, ilguma: 162-04W, Aukštis: 165 m

Dabartinis oras

Ataskaita buvo paskelbta 42 minutes, ne 20:55 UTC
Vėjas 18 kt iš Pietvakarių su gūsio iki 24 kt, svyruoja nuo Pietų ir Vakarų/Šiaurės Vakarų
Temperatūra 10°C
Drėgmė 76%
Slėgis 1003 hPa
Matomumas: 14.5 km
Su prošvaistėmis ne aukštis 1300 ft
lietus

METAR: PAEH 212055Z AUTO 22018G24KT 180V290 9SM SHRA BKN013 10/06 A2962 RMK AO2 PK WND 22027/2003 SHRAB1931E2024B2043 SLP033 P0001 60007 T00950060 58011

Laikas: 13:37 (21:37 UTC)


TAF: trūkstamas

Orai ataskaitas ir orų prognozės (METAR, TAF).

turimą stotys yra geltonos ir raudonos taškus žemėlapyje.

Perkelti pele per norėdami pamatyti stoties vardą.

Tada spustelėkite, norėdami matyti oro stebėjimo ir prognozės.

Norėdami pakeisti žemėlapį: spustelėkite ant žalios mygtukų su juodo kryžiaus žemyn,; žalią mygtuką su brūkšneliu, jei norite nutolinti; arba žalių rodyklių gretimoms žemėlapius.


METAR-TAF: